Аэропорт: Запорожье. Запорожье

ICAO: UKDE

METAR:
2020-08-13 10:30:00
UKDE 131030Z 34004MPS 300V030 9999 BKN046 23/08 Q1014 R02R/090070 NOSIG
METAR:
2020-08-13 08:06:00
TAF UKDE 130806Z 1309/1318 33005MPS 9999 BKN030 TX25/1312Z TN19/1318Z TEMPO 1309/1315 35007G12MPS